Latest Coastal Weather Observations for Melbourne (Olympic Park)

IDV60701

Issued at 11:51 pm EST Monday 26 September 2016 (issued every 10 minutes, with the page automatically refreshed every 10 minutes)

About coastal observations | Map of coastal stations | Coastal observations for VIC | Marine services | Other Formats
Station Details ID: 086338 Name: MELBOURNE (OLYMPIC PARK) Lat: -37.83 Lon: 144.98 Height: 7.53 m
Data from the previous 72 hours. | See also: Recent months at Melbourne (Olympic Park)
Date/Time
EST
Temp
°C
Wind Pressure Rain since
9am
mm
Weather Cloud Vis
km
Sea
Height
m
Swell
Dir  Spd
kts
Gust
kts
hPa Trend Height
m
Period
s
Dir
26/11:30pm 8.2 SE 1 4 1010.1 - 11.4 - - - - - - -
26/11:00pm 8.7 NNE 5 7 1010.0 - 11.4 - - - - - - -
26/10:30pm 8.6 NNW 1 4 1010.4 - 11.2 - - - - - - -
26/10:00pm 8.6 NNW 5 8 1010.7 - 10.8 - - - - - - -
26/09:30pm 8.4 W 5 9 1011.4 - 8.4 - - - - - - -
26/09:00pm 8.3 W 7 13 1011.1 - 6.8 Showers - - - - - -
26/08:30pm 11.2 WNW 2 5 1009.9 - 3.6 - - - - - - -
26/08:00pm 11.4 NNE 6 8 1009.4 - 3.6 - - - - - - -
26/07:30pm 11.7 NNW 4 10 1009.5 - 3.6 - - - - - - -
26/07:00pm 11.7 W 1 3 1009.6 - 3.0 - - - - - - -
26/06:30pm 12.3 NW 5 11 1009.8 - 2.6 - - - - - - -
26/06:00pm 15.4 N 7 11 1008.9 - 0.8 - - - - - - -
26/05:30pm 15.8 NNW 9 12 1008.5 - 0.8 - - - - - - -
26/05:00pm 15.7 N 6 8 1008.5 - 0.8 - - - - - - -
26/04:30pm 16.0 NNW 6 11 1008.6 - 0.8 - - - - - - -
26/04:00pm 16.0 NW 7 12 1008.8 - 0.8 - - - - - - -
26/03:30pm 14.6 W 1 5 1009.0 - 0.8 - - - - - - -
26/03:00pm 15.0 W 7 15 1009.5 - 0.2 Rain - - - - - -
26/02:30pm 16.4 NW 6 15 1009.3 - 0.2 - - - - - - -
26/02:00pm 16.3 NW 6 10 1009.6 - 0.2 - - - - - - -
26/01:30pm 16.3 NW 8 14 1009.7 - 0.2 - - - - - - -
26/01:00pm 16.1 W 4 8 1010.1 - 0.2 - - - - - - -
26/12:30pm 15.6 WNW 4 7 1010.6 - 0.2 - - - - - - -
26/12:00pm 15.7 NW 3 10 1011.2 - 0.2 Recent precip. - - - - - -
26/11:30am 16.2 WSW 5 9 1011.4 - 0.0 - - - - - - -
26/11:00am 15.0 NNW 6 10 1011.9 - 0.0 - - - - - - -
26/10:30am 14.1 WNW 5 11 1012.4 - 0.0 - - - - - - -
26/10:00am 14.6 WNW 3 7 1012.5 - 0.0 - - - - - - -
26/09:30am 14.0 WNW 5 10 1012.8 - 0.0 - - - - - - -
26/09:00am 13.5 NW 6 10 1012.9 - 0.6 - - - - - - -
26/08:30am 12.2 N 7 9 1013.0 - 0.6 - - - - - - -
26/08:00am 10.8 NE 4 6 1013.2 - 0.6 - - - - - - -
26/07:30am 8.9 NNE 5 6 1013.3 - 0.6 - - - - - - -
26/07:00am 8.6 NNE 4 6 1013.3 - 0.6 - - - - - - -
26/06:30am 8.2 NNE 5 6 1013.2 - 0.6 - - - - - - -
26/06:00am 8.2 N 3 5 1013.0 - 0.6 Showers - - - - - -
26/05:30am 8.3 NE 5 7 1013.1 - 0.4 - - - - - - -
26/05:00am 8.2 NE 5 6 1013.1 - 0.0 - - - - - - -
26/04:30am 8.3 NNE 5 7 1013.0 - 0.0 - - - - - - -
26/04:00am 8.6 NE 3 5 1012.9 - 0.0 - - - - - - -
26/03:30am 8.6 NNE 2 4 1013.0 - 0.0 - - - - - - -
26/03:00am 8.6 E 4 5 1013.1 - 0.0 - - - - - - -
26/02:30am 8.5 NNE 6 7 1013.2 - 0.0 - - - - - - -
26/02:00am 8.7 NE 4 6 1013.4 - 0.0 - - - - - - -
26/01:30am 9.0 NNE 6 8 1013.5 - 0.0 - - - - - - -
26/01:00am 9.3 NE 5 6 1013.8 - 0.0 - - - - - - -
26/12:30am 8.7 CALM 0 2 1013.9 - 0.0 - - - - - - -
26/12:00am 10.0 N 3 6 1014.0 - 0.0 - - - - - - -
 
Date/Time
EST
Temp
°C
Wind Pressure Rain since
9am
mm
Weather Cloud Vis
km
Sea
Height
m
Swell
Dir  Spd
kts
Gust
kts
hPa Trend Height
m
Period
s
Dir
25/11:30pm 10.5 NNE 3 5 1014.1 - 0.0 - - - - - - -
25/11:00pm 10.5 CALM 0 0 1014.4 - 0.0 - - - - - - -
25/10:30pm 11.1 CALM 0 3 1014.6 - 0.0 - - - - - - -
25/10:00pm 11.3 SSE 1 5 1014.6 - 0.0 - - - - - - -
25/09:30pm 11.4 SSE 2 5 1014.5 - 0.0 - - - - - - -
25/09:00pm 11.2 SSE 2 4 1014.5 - 0.0 - - - - - - -
25/08:30pm 10.8 CALM 0 3 1014.4 - 0.0 - - - - - - -
25/08:00pm 10.9 CALM 0 0 1014.2 - 0.0 - - - - - - -
25/07:30pm 10.7 CALM 0 0 1013.7 - 0.0 - - - - - - -
25/07:00pm 11.3 SSE 1 5 1013.1 - 0.0 - - - - - - -
25/06:30pm 11.9 S 5 8 1012.7 - 0.0 - - - - - - -
25/06:00pm 12.2 SSE 6 11 1012.3 - 0.0 - - - - - - -
25/05:30pm 12.5 S 5 8 1012.3 - 0.0 - - - - - - -
25/05:00pm 12.9 SSW 5 11 1012.1 - 0.0 - - - - - - -
25/04:30pm 13.4 SSW 6 9 1011.7 - 0.0 - - - - - - -
25/04:00pm 13.2 S 5 9 1011.7 - 0.0 - - - - - - -
25/03:30pm 13.4 S 6 9 1011.8 - 0.0 - - - - - - -
25/03:00pm 13.8 S 5 8 1011.9 - 0.0 Recent precip. - - - - - -
25/02:30pm 11.8 S 7 11 1011.9 - 0.0 - - - - - - -
25/02:00pm 13.4 S 7 12 1011.7 - 0.0 - - - - - - -
25/01:30pm 13.8 S 8 14 1011.7 - 0.0 - - - - - - -
25/01:00pm 13.2 SSW 8 14 1011.8 - 0.0 - - - - - - -
25/12:30pm 13.4 SSW 9 14 1011.9 - 0.0 - - - - - - -
25/12:00pm 13.2 SSW 9 17 1011.9 - 0.0 - - - - - - -
25/11:30am 13.9 SSW 8 15 1011.8 - 0.0 - - - - - - -
25/11:00am 13.1 SW 8 15 1011.9 - 0.0 - - - - - - -
25/10:30am 13.3 SW 7 15 1011.8 - 0.0 - - - - - - -
25/10:00am 13.2 SW 7 14 1011.8 - 0.0 - - - - - - -
25/09:30am 13.3 SW 7 12 1011.7 - 0.0 - - - - - - -
25/09:00am 11.7 W 7 12 1011.4 - 5.8 - - - - - - -
25/08:30am 11.3 WSW 6 11 1011.1 - 5.8 - - - - - - -
25/08:00am 10.8 WSW 6 11 1010.8 - 5.8 - - - - - - -
25/07:30am 10.2 W 5 12 1010.5 - 5.8 - - - - - - -
25/07:00am 9.7 WNW 6 12 1010.1 - 5.8 - - - - - - -
25/06:30am 9.6 W 5 9 1009.7 - 5.8 - - - - - - -
25/06:00am 9.7 WSW 5 8 1009.3 - 5.8 Recent precip. - - - - - -
25/05:30am 9.9 W 4 6 1009.0 - 5.8 - - - - - - -
25/05:00am 10.3 W 5 9 1008.6 - 5.6 - - - - - - -
25/04:30am 10.8 WSW 5 10 1008.3 - 5.6 - - - - - - -
25/04:00am 11.0 W 5 11 1007.9 - 5.6 - - - - - - -
25/03:30am 11.5 WSW 5 11 1007.4 - 5.6 - - - - - - -
25/03:00am 11.7 WSW 5 10 1007.2 - 5.6 - - - - - - -
25/02:30am 11.9 W 4 8 1007.2 - 5.6 - - - - - - -
25/02:00am 12.0 W 5 9 1007.1 - 5.6 - - - - - - -
25/01:30am 12.2 W 5 9 1007.1 - 5.4 - - - - - - -
25/01:00am 12.7 NW 5 9 1007.1 - 4.6 - - - - - - -
25/12:30am 12.8 NNW 3 5 1006.7 - 3.2 - - - - - - -
25/12:00am 12.8 N 4 6 1006.5 - 2.8 Rain - - - - - -
 
Date/Time
EST
Temp
°C
Wind Pressure Rain since
9am
mm
Weather Cloud Vis
km
Sea
Height
m
Swell
Dir  Spd
kts
Gust
kts
hPa Trend Height
m
Period
s
Dir
24/11:30pm 13.1 N 5 7 1006.7 - 1.8 - - - - - - -
24/11:00pm 13.4 N 4 7 1006.7 - 0.8 - - - - - - -
24/10:30pm 13.7 NNW 6 7 1006.7 - 0.2 - - - - - - -
24/10:00pm 14.0 NNW 8 14 1006.7 - 0.0 - - - - - - -
24/09:30pm 14.4 NNW 6 9 1006.7 - 0.0 - - - - - - -
24/09:00pm 14.7 N 6 9 1006.6 - 0.0 Rain - - - - - -
24/08:30pm 14.8 NNW 8 12 1006.7 - 0.0 - - - - - - -
24/08:00pm 15.2 NNW 9 13 1006.6 - 0.0 - - - - - - -
24/07:30pm 15.6 NNW 11 18 1006.5 - 0.0 - - - - - - -
24/07:00pm 16.2 NNW 7 10 1006.4 - 0.0 - - - - - - -
24/06:30pm 17.0 N 12 19 1006.2 - 0.0 - - - - - - -
24/06:00pm 17.4 N 10 15 1006.0 - 0.0 - - - - - - -
24/05:30pm 17.6 N 10 17 1005.9 - 0.0 - - - - - - -
24/05:00pm 17.8 N 9 16 1005.6 - 0.0 - - - - - - -
24/04:30pm 18.1 N 12 20 1005.4 - 0.0 - - - - - - -
24/04:00pm 18.4 N 13 21 1005.4 - 0.0 - - - - - - -
24/03:30pm 18.9 N 13 23 1005.5 - 0.0 - - - - - - -
24/03:04pm 18.9 NNW 16 27 1005.7 - 0.0 - - - - - - -
24/03:00pm 19.4 N 15 24 1005.7 - 0.0 - - - - - - -
24/02:30pm 19.3 N 13 24 1005.9 - 0.0 - - - - - - -
24/02:00pm 19.5 N 12 19 1006.0 - 0.0 - - - - - - -
24/01:35pm 19.0 N 15 25 1006.5 - 0.0 - - - - - - -
24/01:30pm 18.2 N 13 25 1006.5 - 0.0 - - - - - - -
24/01:00pm 18.3 N 13 21 1006.5 - 0.0 - - - - - - -
24/12:30pm 18.3 N 15 21 1007.3 - 0.0 - - - - - - -
24/12:00pm 18.4 N 13 18 1007.4 - 0.0 - - - - - - -
24/11:30am 18.2 N 13 22 1007.7 - 0.0 - - - - - - -
24/11:00am 18.0 N 13 20 1008.0 - 0.0 - - - - - - -
24/10:36am 17.2 N 15 26 1008.2 - 0.0 - - - - - - -
24/10:30am 17.3 N 14 23 1008.2 - 0.0 - - - - - - -
24/10:25am 17.2 N 15 25 1008.3 - 0.0 - - - - - - -
24/10:00am 17.3 N 10 17 1008.8 - 0.0 - - - - - - -
24/09:30am 16.0 N 11 21 1009.2 - 0.0 - - - - - - -
24/09:00am 15.3 N 10 16 1009.7 - 0.0 - - - - - - -
24/08:30am 14.2 N 11 17 1009.9 - 0.0 - - - - - - -
24/08:00am 14.0 N 7 12 1010.1 - 0.0 - - - - - - -
24/07:30am 12.0 NNE 5 7 1010.4 - 0.0 - - - - - - -
24/07:00am 11.2 NNE 4 5 1010.3 - 0.0 - - - - - - -
24/06:30am 11.5 N 3 8 1010.0 - 0.0 - - - - - - -
24/06:00am 11.5 N 6 9 1010.0 - 0.0 - - - - - - -
24/05:30am 11.6 NNW 4 6 1009.9 - 0.0 - - - - - - -
24/05:00am 12.0 N 4 6 1009.9 - 0.0 - - - - - - -
24/04:30am 12.4 N 5 7 1009.9 - 0.0 - - - - - - -
24/04:00am 11.5 N 3 5 1009.9 - 0.0 - - - - - - -
24/03:30am 11.0 NNE 4 5 1010.0 - 0.0 - - - - - - -
24/03:00am 10.8 NE 2 5 1010.0 - 0.0 - - - - - - -
24/02:30am 11.0 NE 1 3 1010.4 - 0.0 - - - - - - -
24/02:00am 10.1 CALM 0 0 1010.7 - 0.0 - - - - - - -
24/01:30am 10.4 CALM 0 0 1011.0 - 0.0 - - - - - - -
24/01:00am 10.7 NNE 1 4 1011.1 - 0.0 - - - - - - -
24/12:30am 10.6 CALM 0 0 1011.0 - 0.0 - - - - - - -
24/12:00am 11.3 NNW 2 4 1011.0 - 0.0 - - - - - - -

Other Formats:

Comma delimited format used in spreadsheet applications
http://www.bom.gov.au/fwo/IDV60701/IDV60701.95936.axf

JavaScript Object Notation format (JSON) in row-major order
http://www.bom.gov.au/fwo/IDV60701/IDV60701.95936.json